sensor_id;sensor_type;location;lat;lon;timestamp;pressure;altitude;pressure_sealevel;temperature;humidity
33265;BME280;31404;53.974;-1.086;2023-07-30T00:00:34;100299.71;;;14.55;85.18
33265;BME280;31404;53.974;-1.086;2023-07-30T00:05:34;100296.96;;;14.50;85.78
33265;BME280;31404;53.974;-1.086;2023-07-30T00:10:35;100302.47;;;14.02;89.11
33265;BME280;31404;53.974;-1.086;2023-07-30T00:15:34;100295.53;;;13.86;89.66
33265;BME280;31404;53.974;-1.086;2023-07-30T00:20:34;100290.51;;;13.91;89.48
33265;BME280;31404;53.974;-1.086;2023-07-30T00:25:34;100292.45;;;13.83;89.76
33265;BME280;31404;53.974;-1.086;2023-07-30T00:30:34;100293.70;;;13.87;88.88
33265;BME280;31404;53.974;-1.086;2023-07-30T00:35:34;100286.99;;;13.60;91.31
33265;BME280;31404;53.974;-1.086;2023-07-30T00:45:36;100289.96;;;13.13;95.91
33265;BME280;31404;53.974;-1.086;2023-07-30T00:50:35;100289.28;;;13.35;95.57
33265;BME280;31404;53.974;-1.086;2023-07-30T00:55:34;100291.34;;;13.63;94.00
33265;BME280;31404;53.974;-1.086;2023-07-30T01:00:34;100290.38;;;13.05;97.36
33265;BME280;31404;53.974;-1.086;2023-07-30T01:05:35;100288.97;;;13.54;96.46
33265;BME280;31404;53.974;-1.086;2023-07-30T01:10:35;100288.24;;;12.85;99.56
33265;BME280;31404;53.974;-1.086;2023-07-30T01:15:35;100292.90;;;12.65;100.00
33265;BME280;31404;53.974;-1.086;2023-07-30T01:20:35;100294.74;;;12.64;100.00
33265;BME280;31404;53.974;-1.086;2023-07-30T01:25:36;100300.53;;;13.92;96.51
33265;BME280;31404;53.974;-1.086;2023-07-30T01:35:35;100292.30;;;13.54;97.12
33265;BME280;31404;53.974;-1.086;2023-07-30T01:40:35;100287.56;;;14.42;92.07
33265;BME280;31404;53.974;-1.086;2023-07-30T01:45:35;100286.98;;;13.16;97.72
33265;BME280;31404;53.974;-1.086;2023-07-30T01:50:34;100285.45;;;12.23;100.00
33265;BME280;31404;53.974;-1.086;2023-07-30T01:55:34;100289.46;;;11.60;100.00
33265;BME280;31404;53.974;-1.086;2023-07-30T02:00:35;100288.79;;;12.39;100.00
33265;BME280;31404;53.974;-1.086;2023-07-30T02:05:35;100293.64;;;13.56;97.23
33265;BME280;31404;53.974;-1.086;2023-07-30T02:10:34;100304.85;;;14.54;89.91
33265;BME280;31404;53.974;-1.086;2023-07-30T02:15:34;100300.45;;;14.80;88.38
33265;BME280;31404;53.974;-1.086;2023-07-30T02:20:35;100303.21;;;16.14;80.97
33265;BME280;31404;53.974;-1.086;2023-07-30T02:25:34;100313.30;;;14.85;86.66
33265;BME280;31404;53.974;-1.086;2023-07-30T02:30:34;100310.17;;;15.28;84.71
33265;BME280;31404;53.974;-1.086;2023-07-30T02:35:35;100310.40;;;15.32;83.35
33265;BME280;31404;53.974;-1.086;2023-07-30T02:40:35;100313.41;;;15.37;83.48
33265;BME280;31404;53.974;-1.086;2023-07-30T02:45:34;100311.30;;;14.24;90.47
33265;BME280;31404;53.974;-1.086;2023-07-30T02:50:34;100312.02;;;13.53;98.83
33265;BME280;31404;53.974;-1.086;2023-07-30T02:55:34;100314.31;;;14.07;96.04
33265;BME280;31404;53.974;-1.086;2023-07-30T03:00:34;100301.45;;;14.63;93.94
33265;BME280;31404;53.974;-1.086;2023-07-30T03:05:35;100296.50;;;13.79;100.00
33265;BME280;31404;53.974;-1.086;2023-07-30T03:10:36;100299.42;;;13.41;100.00
33265;BME280;31404;53.974;-1.086;2023-07-30T03:15:34;100296.79;;;14.51;98.11
33265;BME280;31404;53.974;-1.086;2023-07-30T03:20:34;100296.93;;;14.67;95.78
33265;BME280;31404;53.974;-1.086;2023-07-30T03:25:34;100301.98;;;13.52;100.00
33265;BME280;31404;53.974;-1.086;2023-07-30T03:30:34;100297.05;;;13.16;100.00
33265;BME280;31404;53.974;-1.086;2023-07-30T03:35:34;100295.10;;;13.99;100.00
33265;BME280;31404;53.974;-1.086;2023-07-30T03:40:34;100295.39;;;13.86;100.00
33265;BME280;31404;53.974;-1.086;2023-07-30T03:45:34;100298.17;;;14.58;97.89
33265;BME280;31404;53.974;-1.086;2023-07-30T03:50:35;100304.55;;;13.55;100.00
33265;BME280;31404;53.974;-1.086;2023-07-30T03:55:34;100303.46;;;12.97;100.00
33265;BME280;31404;53.974;-1.086;2023-07-30T04:00:35;100304.53;;;12.65;100.00
33265;BME280;31404;53.974;-1.086;2023-07-30T04:05:34;100300.13;;;13.68;100.00
33265;BME280;31404;53.974;-1.086;2023-07-30T04:10:34;100305.95;;;13.22;100.00
33265;BME280;31404;53.974;-1.086;2023-07-30T04:15:34;100298.48;;;13.52;100.00
33265;BME280;31404;53.974;-1.086;2023-07-30T04:20:34;100297.10;;;13.23;100.00
33265;BME280;31404;53.974;-1.086;2023-07-30T04:25:34;100298.96;;;14.32;98.78
33265;BME280;31404;53.974;-1.086;2023-07-30T04:30:35;100301.41;;;14.61;96.57
33265;BME280;31404;53.974;-1.086;2023-07-30T04:35:35;100310.45;;;13.09;100.00
33265;BME280;31404;53.974;-1.086;2023-07-30T04:40:35;100310.50;;;13.34;100.00
33265;BME280;31404;53.974;-1.086;2023-07-30T04:45:34;100315.72;;;11.71;100.00
33265;BME280;31404;53.974;-1.086;2023-07-30T04:50:35;100325.72;;;11.81;100.00
33265;BME280;31404;53.974;-1.086;2023-07-30T04:55:35;100332.70;;;11.61;100.00
33265;BME280;31404;53.974;-1.086;2023-07-30T05:00:35;100325.39;;;12.74;100.00
33265;BME280;31404;53.974;-1.086;2023-07-30T05:05:35;100333.12;;;12.18;100.00
33265;BME280;31404;53.974;-1.086;2023-07-30T05:10:35;100330.06;;;11.78;100.00
33265;BME280;31404;53.974;-1.086;2023-07-30T05:15:35;100332.36;;;11.86;100.00
33265;BME280;31404;53.974;-1.086;2023-07-30T05:20:35;100327.80;;;10.52;100.00
33265;BME280;31404;53.974;-1.086;2023-07-30T05:25:37;100329.15;;;11.62;100.00
33265;BME280;31404;53.974;-1.086;2023-07-30T05:30:34;100327.73;;;11.28;100.00
33265;BME280;31404;53.974;-1.086;2023-07-30T05:35:34;100330.99;;;12.24;100.00
33265;BME280;31404;53.974;-1.086;2023-07-30T05:40:35;100345.06;;;12.51;100.00
33265;BME280;31404;53.974;-1.086;2023-07-30T05:45:35;100352.47;;;12.60;100.00
33265;BME280;31404;53.974;-1.086;2023-07-30T05:50:35;100355.23;;;11.94;100.00
33265;BME280;31404;53.974;-1.086;2023-07-30T05:55:35;100352.89;;;11.80;100.00
33265;BME280;31404;53.974;-1.086;2023-07-30T06:00:35;100359.23;;;11.54;100.00
33265;BME280;31404;53.974;-1.086;2023-07-30T06:10:35;100362.89;;;12.00;100.00
33265;BME280;31404;53.974;-1.086;2023-07-30T06:15:34;100361.49;;;13.00;100.00
33265;BME280;31404;53.974;-1.086;2023-07-30T06:20:34;100377.65;;;12.59;100.00
33265;BME280;31404;53.974;-1.086;2023-07-30T06:25:34;100374.34;;;12.94;100.00
33265;BME280;31404;53.974;-1.086;2023-07-30T06:30:35;100372.07;;;13.41;100.00
33265;BME280;31404;53.974;-1.086;2023-07-30T06:35:35;100374.59;;;13.16;100.00
33265;BME280;31404;53.974;-1.086;2023-07-30T06:40:29;100370.68;;;12.67;100.00
33265;BME280;31404;53.974;-1.086;2023-07-30T06:45:34;100364.39;;;12.78;100.00
33265;BME280;31404;53.974;-1.086;2023-07-30T06:50:35;100370.29;;;10.43;100.00
33265;BME280;31404;53.974;-1.086;2023-07-30T06:55:35;100372.66;;;11.86;100.00
33265;BME280;31404;53.974;-1.086;2023-07-30T07:00:35;100370.22;;;11.08;100.00
33265;BME280;31404;53.974;-1.086;2023-07-30T07:05:35;100386.39;;;11.83;100.00
33265;BME280;31404;53.974;-1.086;2023-07-30T07:10:35;100380.78;;;12.87;100.00
33265;BME280;31404;53.974;-1.086;2023-07-30T07:15:34;100391.63;;;12.17;100.00
33265;BME280;31404;53.974;-1.086;2023-07-30T07:20:34;100397.75;;;12.26;100.00
33265;BME280;31404;53.974;-1.086;2023-07-30T07:25:34;100399.17;;;12.61;100.00
33265;BME280;31404;53.974;-1.086;2023-07-30T07:30:35;100404.42;;;11.61;100.00
33265;BME280;31404;53.974;-1.086;2023-07-30T07:35:35;100402.96;;;11.10;100.00
33265;BME280;31404;53.974;-1.086;2023-07-30T07:40:37;100396.57;;;11.75;100.00
33265;BME280;31404;53.974;-1.086;2023-07-30T07:45:35;100403.11;;;11.15;100.00
33265;BME280;31404;53.974;-1.086;2023-07-30T07:50:34;100396.74;;;12.07;100.00
33265;BME280;31404;53.974;-1.086;2023-07-30T07:55:35;100395.63;;;10.86;100.00
33265;BME280;31404;53.974;-1.086;2023-07-30T08:00:34;100388.94;;;11.74;100.00
33265;BME280;31404;53.974;-1.086;2023-07-30T08:05:34;100394.24;;;11.30;100.00
33265;BME280;31404;53.974;-1.086;2023-07-30T08:15:35;100399.08;;;11.69;100.00
33265;BME280;31404;53.974;-1.086;2023-07-30T08:20:36;100404.96;;;11.16;100.00
33265;BME280;31404;53.974;-1.086;2023-07-30T08:25:34;100403.46;;;11.17;100.00
33265;BME280;31404;53.974;-1.086;2023-07-30T08:30:34;100418.07;;;11.14;100.00
33265;BME280;31404;53.974;-1.086;2023-07-30T08:35:34;100412.43;;;11.95;100.00
33265;BME280;31404;53.974;-1.086;2023-07-30T08:40:34;100419.07;;;11.10;100.00
33265;BME280;31404;53.974;-1.086;2023-07-30T08:45:30;100425.00;;;11.10;100.00
33265;BME280;31404;53.974;-1.086;2023-07-30T08:50:35;100419.47;;;10.86;100.00
33265;BME280;31404;53.974;-1.086;2023-07-30T08:55:34;100417.77;;;11.07;100.00
33265;BME280;31404;53.974;-1.086;2023-07-30T09:00:37;100415.40;;;11.89;100.00
33265;BME280;31404;53.974;-1.086;2023-07-30T09:05:35;100403.55;;;11.88;100.00
33265;BME280;31404;53.974;-1.086;2023-07-30T09:10:35;100402.04;;;12.30;100.00
33265;BME280;31404;53.974;-1.086;2023-07-30T09:15:36;100401.87;;;13.38;100.00
33265;BME280;31404;53.974;-1.086;2023-07-30T09:25:35;100416.69;;;12.05;100.00
33265;BME280;31404;53.974;-1.086;2023-07-30T09:30:34;100421.07;;;12.12;100.00
33265;BME280;31404;53.974;-1.086;2023-07-30T09:35:34;100424.66;;;12.34;100.00
33265;BME280;31404;53.974;-1.086;2023-07-30T09:40:36;100427.68;;;12.27;100.00
33265;BME280;31404;53.974;-1.086;2023-07-30T09:45:35;100431.44;;;12.68;100.00
33265;BME280;31404;53.974;-1.086;2023-07-30T09:50:36;100433.76;;;13.75;100.00
33265;BME280;31404;53.974;-1.086;2023-07-30T09:55:34;100452.75;;;13.32;100.00
33265;BME280;31404;53.974;-1.086;2023-07-30T10:00:34;100450.81;;;13.65;97.61
33265;BME280;31404;53.974;-1.086;2023-07-30T10:05:34;100451.64;;;12.86;100.00
33265;BME280;31404;53.974;-1.086;2023-07-30T10:10:35;100457.69;;;13.31;100.00
33265;BME280;31404;53.974;-1.086;2023-07-30T10:15:35;100477.12;;;12.62;100.00
33265;BME280;31404;53.974;-1.086;2023-07-30T10:20:35;100475.19;;;12.77;100.00
33265;BME280;31404;53.974;-1.086;2023-07-30T10:30:35;100475.88;;;13.02;100.00
33265;BME280;31404;53.974;-1.086;2023-07-30T10:45:35;100499.84;;;12.43;100.00
33265;BME280;31404;53.974;-1.086;2023-07-30T10:55:35;100499.25;;;13.67;100.00
33265;BME280;31404;53.974;-1.086;2023-07-30T11:00:35;100509.09;;;12.43;100.00
33265;BME280;31404;53.974;-1.086;2023-07-30T11:20:35;100501.90;;;13.84;100.00
33265;BME280;31404;53.974;-1.086;2023-07-30T11:25:29;100504.55;;;13.25;100.00
33265;BME280;31404;53.974;-1.086;2023-07-30T11:30:35;100501.45;;;12.84;100.00
33265;BME280;31404;53.974;-1.086;2023-07-30T11:35:35;100505.07;;;14.41;100.00
33265;BME280;31404;53.974;-1.086;2023-07-30T11:40:35;100510.43;;;14.86;95.33
33265;BME280;31404;53.974;-1.086;2023-07-30T11:45:34;100527.52;;;12.88;99.60
33265;BME280;31404;53.974;-1.086;2023-07-30T12:00:36;100531.81;;;12.31;100.00
33265;BME280;31404;53.974;-1.086;2023-07-30T12:05:36;100526.85;;;12.96;99.84
33265;BME280;31404;53.974;-1.086;2023-07-30T12:15:34;100529.62;;;13.54;95.68
33265;BME280;31404;53.974;-1.086;2023-07-30T12:20:34;100535.59;;;13.43;94.36
33265;BME280;31404;53.974;-1.086;2023-07-30T12:25:34;100535.65;;;12.83;98.19
33265;BME280;31404;53.974;-1.086;2023-07-30T12:30:34;100530.85;;;13.68;95.71
33265;BME280;31404;53.974;-1.086;2023-07-30T12:35:34;100536.32;;;13.90;92.37
33265;BME280;31404;53.974;-1.086;2023-07-30T12:40:34;100537.64;;;13.82;92.12
33265;BME280;31404;53.974;-1.086;2023-07-30T12:45:35;100541.05;;;14.42;91.63
33265;BME280;31404;53.974;-1.086;2023-07-30T12:50:35;100548.24;;;13.51;93.09
33265;BME280;31404;53.974;-1.086;2023-07-30T12:55:35;100555.09;;;13.48;89.26
33265;BME280;31404;53.974;-1.086;2023-07-30T13:00:35;100544.91;;;14.56;85.30
33265;BME280;31404;53.974;-1.086;2023-07-30T13:05:34;100548.67;;;14.28;89.45
33265;BME280;31404;53.974;-1.086;2023-07-30T13:10:34;100550.36;;;14.49;87.51
33265;BME280;31404;53.974;-1.086;2023-07-30T13:15:34;100554.76;;;14.65;86.35
33265;BME280;31404;53.974;-1.086;2023-07-30T13:20:34;100561.86;;;13.46;92.28
33265;BME280;31404;53.974;-1.086;2023-07-30T13:25:34;100559.42;;;13.98;90.75
33265;BME280;31404;53.974;-1.086;2023-07-30T13:30:35;100556.17;;;14.00;91.28
33265;BME280;31404;53.974;-1.086;2023-07-30T13:35:34;100546.99;;;14.51;89.58
33265;BME280;31404;53.974;-1.086;2023-07-30T13:40:35;100558.73;;;14.00;91.78
33265;BME280;31404;53.974;-1.086;2023-07-30T13:45:34;100564.31;;;13.94;90.06
33265;BME280;31404;53.974;-1.086;2023-07-30T13:50:34;100578.51;;;13.73;91.52
33265;BME280;31404;53.974;-1.086;2023-07-30T13:55:35;100580.64;;;13.49;89.28
33265;BME280;31404;53.974;-1.086;2023-07-30T14:00:35;100582.46;;;14.31;85.60
33265;BME280;31404;53.974;-1.086;2023-07-30T14:05:35;100585.63;;;12.72;95.50
33265;BME280;31404;53.974;-1.086;2023-07-30T14:10:35;100573.73;;;13.43;91.61
33265;BME280;31404;53.974;-1.086;2023-07-30T14:15:35;100572.33;;;14.06;87.44
33265;BME280;31404;53.974;-1.086;2023-07-30T14:20:34;100571.91;;;13.48;90.68
33265;BME280;31404;53.974;-1.086;2023-07-30T14:25:35;100553.25;;;14.11;86.52
33265;BME280;31404;53.974;-1.086;2023-07-30T14:30:34;100551.48;;;13.35;89.31
33265;BME280;31404;53.974;-1.086;2023-07-30T14:35:34;100539.00;;;13.80;89.03
33265;BME280;31404;53.974;-1.086;2023-07-30T14:40:34;100548.70;;;13.69;85.84
33265;BME280;31404;53.974;-1.086;2023-07-30T14:45:34;100551.83;;;14.15;83.81
33265;BME280;31404;53.974;-1.086;2023-07-30T14:50:34;100544.62;;;14.87;82.20
33265;BME280;31404;53.974;-1.086;2023-07-30T14:55:34;100555.09;;;14.46;85.90
33265;BME280;31404;53.974;-1.086;2023-07-30T15:00:32;100562.85;;;15.65;78.56
33265;BME280;31404;53.974;-1.086;2023-07-30T15:05:35;100571.40;;;14.90;80.56
33265;BME280;31404;53.974;-1.086;2023-07-30T15:10:35;100566.34;;;15.28;80.74
33265;BME280;31404;53.974;-1.086;2023-07-30T15:15:35;100577.00;;;15.78;76.67
33265;BME280;31404;53.974;-1.086;2023-07-30T15:20:34;100570.57;;;14.90;80.04
33265;BME280;31404;53.974;-1.086;2023-07-30T15:25:34;100574.59;;;14.22;81.47
33265;BME280;31404;53.974;-1.086;2023-07-30T15:30:36;100568.52;;;14.54;81.40
33265;BME280;31404;53.974;-1.086;2023-07-30T15:35:40;100580.57;;;14.04;83.09
33265;BME280;31404;53.974;-1.086;2023-07-30T15:40:29;100584.73;;;14.76;80.57
33265;BME280;31404;53.974;-1.086;2023-07-30T15:45:34;100580.21;;;14.44;81.19
33265;BME280;31404;53.974;-1.086;2023-07-30T15:50:34;100580.17;;;14.42;81.24
33265;BME280;31404;53.974;-1.086;2023-07-30T15:55:34;100586.09;;;13.53;83.43
33265;BME280;31404;53.974;-1.086;2023-07-30T16:00:34;100580.03;;;14.19;83.25
33265;BME280;31404;53.974;-1.086;2023-07-30T16:05:34;100579.90;;;13.73;85.82
33265;BME280;31404;53.974;-1.086;2023-07-30T16:10:34;100575.62;;;13.26;88.38
33265;BME280;31404;53.974;-1.086;2023-07-30T16:15:35;100578.95;;;13.87;87.12
33265;BME280;31404;53.974;-1.086;2023-07-30T16:20:34;100578.37;;;15.21;80.79
33265;BME280;31404;53.974;-1.086;2023-07-30T16:25:34;100584.88;;;14.30;85.32
33265;BME280;31404;53.974;-1.086;2023-07-30T16:30:34;100582.96;;;14.00;87.12
33265;BME280;31404;53.974;-1.086;2023-07-30T16:35:34;100589.53;;;13.55;89.99
33265;BME280;31404;53.974;-1.086;2023-07-30T16:40:34;100595.58;;;13.58;92.05
33265;BME280;31404;53.974;-1.086;2023-07-30T16:45:34;100594.92;;;14.17;88.21
33265;BME280;31404;53.974;-1.086;2023-07-30T16:50:29;100595.98;;;13.94;87.94
33265;BME280;31404;53.974;-1.086;2023-07-30T16:55:34;100601.17;;;13.53;91.66
33265;BME280;31404;53.974;-1.086;2023-07-30T17:00:34;100591.02;;;14.35;90.05
33265;BME280;31404;53.974;-1.086;2023-07-30T17:05:34;100592.93;;;14.20;89.51
33265;BME280;31404;53.974;-1.086;2023-07-30T17:10:35;100582.99;;;13.86;91.57
33265;BME280;31404;53.974;-1.086;2023-07-30T17:15:35;100576.09;;;14.34;88.98
33265;BME280;31404;53.974;-1.086;2023-07-30T17:20:35;100575.63;;;14.10;89.00
33265;BME280;31404;53.974;-1.086;2023-07-30T17:25:35;100574.11;;;13.47;92.71
33265;BME280;31404;53.974;-1.086;2023-07-30T17:30:35;100570.20;;;15.86;83.21
33265;BME280;31404;53.974;-1.086;2023-07-30T17:35:35;100577.78;;;14.28;90.12
33265;BME280;31404;53.974;-1.086;2023-07-30T17:40:35;100578.37;;;13.66;94.98
33265;BME280;31404;53.974;-1.086;2023-07-30T17:45:36;100579.73;;;13.62;93.68
33265;BME280;31404;53.974;-1.086;2023-07-30T17:50:34;100568.48;;;14.83;90.50
33265;BME280;31404;53.974;-1.086;2023-07-30T17:55:34;100573.84;;;14.33;91.20
33265;BME280;31404;53.974;-1.086;2023-07-30T18:00:34;100581.01;;;13.62;95.85
33265;BME280;31404;53.974;-1.086;2023-07-30T18:05:35;100575.83;;;14.33;94.00
33265;BME280;31404;53.974;-1.086;2023-07-30T18:10:35;100576.52;;;14.75;90.78
33265;BME280;31404;53.974;-1.086;2023-07-30T18:15:35;100572.90;;;14.49;96.90
33265;BME280;31404;53.974;-1.086;2023-07-30T18:20:36;100570.98;;;13.16;100.00
33265;BME280;31404;53.974;-1.086;2023-07-30T18:25:34;100576.82;;;13.85;100.00
33265;BME280;31404;53.974;-1.086;2023-07-30T18:30:35;100577.34;;;14.46;100.00
33265;BME280;31404;53.974;-1.086;2023-07-30T18:35:36;100583.26;;;14.62;100.00
33265;BME280;31404;53.974;-1.086;2023-07-30T18:40:36;100586.74;;;13.82;100.00
33265;BME280;31404;53.974;-1.086;2023-07-30T18:45:35;100592.85;;;14.74;100.00
33265;BME280;31404;53.974;-1.086;2023-07-30T18:50:37;100594.29;;;14.13;100.00
33265;BME280;31404;53.974;-1.086;2023-07-30T18:55:34;100594.10;;;14.84;100.00
33265;BME280;31404;53.974;-1.086;2023-07-30T19:00:34;100595.74;;;14.01;100.00
33265;BME280;31404;53.974;-1.086;2023-07-30T19:05:35;100596.19;;;14.12;100.00
33265;BME280;31404;53.974;-1.086;2023-07-30T19:10:40;100591.73;;;14.81;100.00
33265;BME280;31404;53.974;-1.086;2023-07-30T19:15:35;100595.21;;;15.80;100.00
33265;BME280;31404;53.974;-1.086;2023-07-30T19:20:35;100595.92;;;16.21;100.00
33265;BME280;31404;53.974;-1.086;2023-07-30T19:35:36;100585.72;;;14.84;100.00
33265;BME280;31404;53.974;-1.086;2023-07-30T19:40:34;100579.01;;;16.61;100.00
33265;BME280;31404;53.974;-1.086;2023-07-30T19:45:34;100577.44;;;16.34;100.00
33265;BME280;31404;53.974;-1.086;2023-07-30T19:50:34;100576.10;;;15.53;100.00
33265;BME280;31404;53.974;-1.086;2023-07-30T19:55:35;100569.63;;;15.27;100.00
33265;BME280;31404;53.974;-1.086;2023-07-30T20:00:34;100567.30;;;15.02;100.00
33265;BME280;31404;53.974;-1.086;2023-07-30T20:05:37;100561.20;;;15.18;100.00
33265;BME280;31404;53.974;-1.086;2023-07-30T20:10:39;100558.22;;;14.96;100.00
33265;BME280;31404;53.974;-1.086;2023-07-30T20:15:32;100551.84;;;14.08;100.00
33265;BME280;31404;53.974;-1.086;2023-07-30T20:20:35;100549.18;;;14.97;100.00
33265;BME280;31404;53.974;-1.086;2023-07-30T20:25:36;100544.65;;;14.89;100.00
33265;BME280;31404;53.974;-1.086;2023-07-30T20:30:44;100536.79;;;14.91;100.00
33265;BME280;31404;53.974;-1.086;2023-07-30T20:35:50;100533.34;;;15.00;100.00
33265;BME280;31404;53.974;-1.086;2023-07-30T20:40:35;100527.83;;;14.62;100.00
33265;BME280;31404;53.974;-1.086;2023-07-30T20:45:34;100521.28;;;14.65;100.00
33265;BME280;31404;53.974;-1.086;2023-07-30T20:50:35;100524.22;;;14.99;100.00
33265;BME280;31404;53.974;-1.086;2023-07-30T20:55:35;100513.86;;;15.92;100.00
33265;BME280;31404;53.974;-1.086;2023-07-30T21:00:34;100510.79;;;13.61;100.00
33265;BME280;31404;53.974;-1.086;2023-07-30T21:05:34;100506.35;;;14.37;100.00
33265;BME280;31404;53.974;-1.086;2023-07-30T21:10:35;100505.96;;;15.23;100.00
33265;BME280;31404;53.974;-1.086;2023-07-30T21:15:35;100500.71;;;15.05;100.00
33265;BME280;31404;53.974;-1.086;2023-07-30T21:20:36;100493.64;;;15.21;100.00
33265;BME280;31404;53.974;-1.086;2023-07-30T21:25:37;100492.97;;;15.18;100.00
33265;BME280;31404;53.974;-1.086;2023-07-30T21:30:35;100480.90;;;14.13;100.00
33265;BME280;31404;53.974;-1.086;2023-07-30T21:35:39;100482.91;;;14.17;100.00
33265;BME280;31404;53.974;-1.086;2023-07-30T21:40:36;100477.60;;;14.98;100.00
33265;BME280;31404;53.974;-1.086;2023-07-30T21:45:34;100465.09;;;13.33;100.00
33265;BME280;31404;53.974;-1.086;2023-07-30T21:50:34;100460.37;;;12.38;100.00
33265;BME280;31404;53.974;-1.086;2023-07-30T21:55:35;100454.74;;;12.89;100.00
33265;BME280;31404;53.974;-1.086;2023-07-30T22:00:34;100450.87;;;12.71;100.00
33265;BME280;31404;53.974;-1.086;2023-07-30T22:05:36;100439.67;;;12.85;100.00
33265;BME280;31404;53.974;-1.086;2023-07-30T22:15:34;100425.84;;;13.50;100.00
33265;BME280;31404;53.974;-1.086;2023-07-30T22:20:35;100418.82;;;14.27;100.00
33265;BME280;31404;53.974;-1.086;2023-07-30T22:25:34;100412.31;;;14.16;100.00
33265;BME280;31404;53.974;-1.086;2023-07-30T22:30:37;100406.86;;;14.22;100.00
33265;BME280;31404;53.974;-1.086;2023-07-30T22:35:36;100398.04;;;13.26;100.00
33265;BME280;31404;53.974;-1.086;2023-07-30T22:40:38;100392.26;;;12.75;100.00
33265;BME280;31404;53.974;-1.086;2023-07-30T22:45:36;100386.65;;;12.97;100.00
33265;BME280;31404;53.974;-1.086;2023-07-30T22:50:35;100381.26;;;12.57;100.00
33265;BME280;31404;53.974;-1.086;2023-07-30T22:55:35;100372.96;;;12.23;100.00
33265;BME280;31404;53.974;-1.086;2023-07-30T23:00:36;100368.64;;;11.77;100.00
33265;BME280;31404;53.974;-1.086;2023-07-30T23:05:35;100354.34;;;13.45;100.00
33265;BME280;31404;53.974;-1.086;2023-07-30T23:10:35;100352.91;;;12.36;100.00
33265;BME280;31404;53.974;-1.086;2023-07-30T23:15:35;100340.23;;;12.96;100.00
33265;BME280;31404;53.974;-1.086;2023-07-30T23:20:34;100340.79;;;13.55;100.00
33265;BME280;31404;53.974;-1.086;2023-07-30T23:25:34;100333.81;;;14.18;100.00
33265;BME280;31404;53.974;-1.086;2023-07-30T23:30:34;100331.83;;;13.33;100.00
33265;BME280;31404;53.974;-1.086;2023-07-30T23:35:35;100320.17;;;14.10;100.00
33265;BME280;31404;53.974;-1.086;2023-07-30T23:40:36;100306.60;;;15.21;100.00
33265;BME280;31404;53.974;-1.086;2023-07-30T23:45:35;100305.57;;;15.06;100.00
33265;BME280;31404;53.974;-1.086;2023-07-30T23:50:35;100304.32;;;13.60;100.00
33265;BME280;31404;53.974;-1.086;2023-07-30T23:55:35;100300.33;;;14.38;100.00
